Time;durP1;ratioP1;P1;durP2;ratioP2;P2;SDS_P1;SDS_P2;PMS_P1;PMS_P2;Temp;Humidity;BMP_temperature;BMP_pressure;BME280_temperature;BME280_humidity;BME280_pressure;Samples;Min_cycle;Max_cycle;Signal;HPM_P1;HPM_P2
2023/03/17 00:00:21;;;;;;;7.18;2.55;;;7.40;99.90;;;;;;5024996;28;20258;-81
2023/03/17 00:02:49;;;;;;;4.55;2.80;;;7.40;99.90;;;;;;5026102;28;20204;-80
2023/03/17 00:05:19;;;;;;;3.70;2.63;;;7.30;99.90;;;;;;5025397;28;20220;-80
2023/03/17 00:07:47;;;;;;;9.98;3.10;;;7.30;99.90;;;;;;5031561;28;20204;-81
2023/03/17 00:10:17;;;;;;;5.57;2.92;;;7.30;99.90;;;;;;5031303;28;20248;-81
2023/03/17 00:12:45;;;;;;;5.03;2.58;;;7.40;99.90;;;;;;5030247;28;20217;-80
2023/03/17 00:15:13;;;;;;;3.67;2.63;;;7.40;99.90;;;;;;5033167;28;20610;-80
2023/03/17 00:17:42;;;;;;;4.85;3.25;;;7.40;99.90;;;;;;5028971;28;20200;-81
2023/03/17 00:20:18;;;;;;;5.93;2.85;;;7.40;99.90;;;;;;5028693;28;20599;-81
2023/03/17 00:22:45;;;;;;;5.10;3.20;;;7.40;99.90;;;;;;5033355;28;20211;-80
2023/03/17 00:25:20;;;;;;;7.10;3.70;;;7.40;99.90;;;;;;5029549;28;20271;-80
2023/03/17 00:27:49;;;;;;;3.83;3.45;;;7.30;99.90;;;;;;5027517;28;20272;-82
2023/03/17 00:30:16;;;;;;;5.07;3.10;;;7.20;99.90;;;;;;5027835;28;20636;-80
2023/03/17 00:32:45;;;;;;;5.25;3.08;;;7.20;99.90;;;;;;5027599;28;20273;-82
2023/03/17 00:35:21;;;;;;;7.00;3.28;;;7.20;99.90;;;;;;5030250;28;20275;-81
2023/03/17 00:37:49;;;;;;;10.02;3.97;;;7.20;99.90;;;;;;5026118;28;20209;-80
2023/03/17 00:40:19;;;;;;;5.03;2.63;;;7.20;99.90;;;;;;5025348;28;20322;-82
2023/03/17 00:42:46;;;;;;;6.45;3.53;;;7.10;99.90;;;;;;5021291;28;20203;-80
2023/03/17 00:45:14;;;;;;;4.15;2.97;;;7.10;99.90;;;;;;5020785;28;20738;-80
2023/03/17 00:47:42;;;;;;;5.72;2.55;;;7.10;99.90;;;;;;5022362;28;20299;-81
2023/03/17 00:50:14;;;;;;;8.80;2.90;;;7.10;99.90;;;;;;5032911;28;20203;-82
2023/03/17 00:52:41;;;;;;;3.95;3.17;;;7.10;99.90;;;;;;5032878;28;20273;-82
2023/03/17 00:55:09;;;;;;;4.25;2.85;;;7.10;99.90;;;;;;5040936;28;20181;-81
2023/03/17 00:57:37;;;;;;;3.03;2.72;;;7.00;99.90;;;;;;5036184;28;20201;-81
2023/03/17 01:00:06;;;;;;;3.85;3.00;;;7.00;99.90;;;;;;5016045;28;20229;-81
2023/03/17 01:02:33;;;;;;;6.00;3.50;;;7.00;99.90;;;;;;5019754;28;20215;-80
2023/03/17 01:05:00;;;;;;;3.65;2.72;;;7.00;99.90;;;;;;5016201;28;20207;-80
2023/03/17 01:07:29;;;;;;;4.80;2.80;;;7.00;99.90;;;;;;5013128;28;20216;-80
2023/03/17 01:09:56;;;;;;;4.50;2.90;;;6.90;99.90;;;;;;5021804;28;20316;-80
2023/03/17 01:12:23;;;;;;;17.90;4.05;;;6.90;99.90;;;;;;5012906;28;20654;-81
2023/03/17 01:14:50;;;;;;;4.90;3.47;;;6.80;99.90;;;;;;5016082;28;20202;-80
2023/03/17 01:17:18;;;;;;;4.07;3.00;;;6.90;99.90;;;;;;5015963;28;20212;-80
2023/03/17 01:19:46;;;;;;;5.80;3.00;;;6.90;99.90;;;;;;5017155;28;20219;-80
2023/03/17 01:22:13;;;;;;;2.90;2.60;;;6.90;99.90;;;;;;5041600;28;20237;-81
2023/03/17 01:24:42;;;;;;;5.85;2.88;;;6.90;99.90;;;;;;5040688;28;20208;-80
2023/03/17 01:27:09;;;;;;;5.05;3.17;;;6.90;99.90;;;;;;5039685;28;20223;-81
2023/03/17 01:29:36;;;;;;;5.32;2.72;;;6.90;99.90;;;;;;5035147;28;20279;-80
2023/03/17 01:32:03;;;;;;;9.82;2.95;;;6.90;99.90;;;;;;5022784;28;20638;-79
2023/03/17 01:34:31;;;;;;;3.15;2.45;;;6.90;99.90;;;;;;5018908;28;20291;-81
2023/03/17 01:36:58;;;;;;;3.50;2.53;;;6.80;99.90;;;;;;5019551;28;20209;-80
2023/03/17 01:39:26;;;;;;;3.80;2.65;;;6.80;99.90;;;;;;5018001;28;20303;-80
2023/03/17 01:42:00;;;;;;;6.63;2.75;;;6.90;99.90;;;;;;5018369;28;20702;-80
2023/03/17 01:44:28;;;;;;;4.70;3.28;;;6.80;99.90;;;;;;5021268;28;20296;-80
2023/03/17 01:46:55;;;;;;;3.10;2.70;;;6.80;99.90;;;;;;5032137;28;20211;-80
2023/03/17 01:49:29;;;;;;;5.15;3.50;;;6.80;99.90;;;;;;5025792;28;20258;-79
2023/03/17 01:52:04;;;;;;;4.32;2.95;;;6.80;99.90;;;;;;5024740;28;20267;-81
2023/03/17 01:54:39;;;;;;;4.15;2.55;;;6.90;99.90;;;;;;5016903;28;20212;-81
2023/03/17 01:57:11;;;;;;;5.35;3.20;;;6.90;99.90;;;;;;5029218;28;20273;-81
2023/03/17 01:59:44;;;;;;;2.88;2.60;;;7.00;99.90;;;;;;5014089;28;20228;-80
2023/03/17 02:02:15;;;;;;;5.25;3.30;;;6.90;99.90;;;;;;5014288;28;20238;-81
2023/03/17 02:04:42;;;;;;;6.40;3.65;;;6.80;99.90;;;;;;5018904;28;20287;-80
2023/03/17 02:07:10;;;;;;;3.90;2.78;;;6.80;99.90;;;;;;5025080;28;20231;-80
2023/03/17 02:09:37;;;;;;;4.13;3.10;;;6.80;99.90;;;;;;5019699;28;20280;-81
2023/03/17 02:12:06;;;;;;;6.45;3.50;;;6.90;99.90;;;;;;5029488;28;20206;-79
2023/03/17 02:14:35;;;;;;;4.07;2.90;;;6.80;99.90;;;;;;5038780;28;20254;-79
2023/03/17 02:17:02;;;;;;;4.85;3.60;;;6.80;99.90;;;;;;5027107;28;20643;-80
2023/03/17 02:19:29;;;;;;;3.00;2.53;;;6.70;99.90;;;;;;5029451;28;20619;-81
2023/03/17 02:21:58;;;;;;;5.45;3.35;;;6.80;99.90;;;;;;5026023;28;20219;-79
2023/03/17 02:24:31;;;;;;;4.25;3.33;;;6.70;99.90;;;;;;5020531;28;20231;-79
2023/03/17 02:27:04;;;;;;;3.80;3.00;;;6.70;99.90;;;;;;5017842;28;20714;-80
2023/03/17 02:29:33;;;;;;;3.53;2.90;;;6.70;99.90;;;;;;5013747;28;20238;-81
2023/03/17 02:32:00;;;;;;;3.50;2.75;;;6.80;99.90;;;;;;5021371;28;20194;-81
2023/03/17 02:34:27;;;;;;;3.17;2.80;;;6.80;99.90;;;;;;5016970;28;20295;-80
2023/03/17 02:36:54;;;;;;;3.30;2.90;;;6.80;99.90;;;;;;5015417;28;20299;-80
2023/03/17 02:39:22;;;;;;;4.53;2.67;;;6.80;99.90;;;;;;5017069;28;20231;-81
2023/03/17 02:41:49;;;;;;;4.43;3.10;;;6.80;99.90;;;;;;5016680;28;20230;-80
2023/03/17 02:44:16;;;;;;;4.75;3.38;;;6.90;99.90;;;;;;5013517;28;20207;-80
2023/03/17 02:46:43;;;;;;;4.65;3.00;;;6.80;99.90;;;;;;5017156;28;20274;-80
2023/03/17 02:49:12;;;;;;;5.05;2.90;;;6.70;99.90;;;;;;5010960;28;20731;-79
2023/03/17 02:51:39;;;;;;;4.80;3.30;;;6.60;99.90;;;;;;5015194;28;20199;-80
2023/03/17 02:54:05;;;;;;;4.20;3.20;;;6.60;99.90;;;;;;5022921;28;20270;-79
2023/03/17 02:56:33;;;;;;;9.27;3.40;;;6.60;99.90;;;;;;5015815;28;20211;-80
2023/03/17 02:59:00;;;;;;;5.47;2.80;;;6.50;99.90;;;;;;5011363;28;20223;-80
2023/03/17 03:01:28;;;;;;;4.57;3.10;;;6.50;99.90;;;;;;5021599;28;20229;-81
2023/03/17 03:03:55;;;;;;;5.40;3.47;;;6.50;99.90;;;;;;5028585;28;20220;-80
2023/03/17 03:06:22;;;;;;;3.75;2.95;;;6.50;99.90;;;;;;5027442;28;20209;-79
2023/03/17 03:08:49;;;;;;;8.45;3.80;;;6.50;99.90;;;;;;5031470;28;20230;-82
2023/03/17 03:11:17;;;;;;;4.15;3.15;;;6.50;99.90;;;;;;5013614;28;20267;-79
2023/03/17 03:13:45;;;;;;;5.18;3.67;;;6.50;99.90;;;;;;5022319;28;20204;-79
2023/03/17 03:16:12;;;;;;;3.65;3.00;;;6.60;99.90;;;;;;5031633;28;20215;-80
2023/03/17 03:18:39;;;;;;;5.72;3.38;;;6.70;99.90;;;;;;5019897;28;20232;-79
2023/03/17 03:21:07;;;;;;;4.45;3.13;;;6.50;99.90;;;;;;5017837;28;20303;-81
2023/03/17 03:23:34;;;;;;;3.78;3.03;;;6.50;99.90;;;;;;5027001;28;20273;-79
2023/03/17 03:26:01;;;;;;;6.15;3.40;;;6.40;99.90;;;;;;5025232;28;20290;-78
2023/03/17 03:28:28;;;;;;;5.75;3.53;;;6.40;99.90;;;;;;5026354;28;20312;-79
2023/03/17 03:30:56;;;;;;;3.95;3.00;;;6.40;99.90;;;;;;5032020;28;20234;-79
2023/03/17 03:33:23;;;;;;;4.57;3.17;;;6.30;99.90;;;;;;5028894;28;20238;-81
2023/03/17 03:35:50;;;;;;;4.20;3.10;;;6.40;99.90;;;;;;5027266;28;20243;-80
2023/03/17 03:38:17;;;;;;;5.40;3.55;;;6.30;99.90;;;;;;5015401;28;20222;-80
2023/03/17 03:40:44;;;;;;;5.45;3.78;;;6.30;99.90;;;;;;5018049;28;20300;-80
2023/03/17 03:43:12;;;;;;;3.67;2.97;;;6.20;99.90;;;;;;5025512;28;20224;-80
2023/03/17 03:45:39;;;;;;;6.45;3.20;;;6.20;99.90;;;;;;5015905;28;20241;-79
2023/03/17 03:48:07;;;;;;;4.68;4.15;;;6.30;99.90;;;;;;5015261;28;20211;-79
2023/03/17 03:50:34;;;;;;;3.92;3.50;;;6.20;99.90;;;;;;5039049;28;20188;-81
2023/03/17 03:53:01;;;;;;;4.20;3.45;;;6.20;99.90;;;;;;5039805;28;20240;-82
2023/03/17 03:55:28;;;;;;;7.88;3.63;;;6.10;99.90;;;;;;5038972;28;20249;-81
2023/03/17 03:57:55;;;;;;;3.42;2.97;;;6.20;99.90;;;;;;5038474;28;20229;-79
2023/03/17 04:00:22;;;;;;;5.20;3.42;;;6.10;99.90;;;;;;5028656;28;20222;-79
2023/03/17 04:02:49;;;;;;;5.10;3.80;;;6.00;99.90;;;;;;5016586;28;20711;-79
2023/03/17 04:05:18;;;;;;;4.75;3.65;;;6.10;99.90;;;;;;5026824;28;20209;-79
2023/03/17 04:07:46;;;;;;;7.22;3.83;;;6.00;99.90;;;;;;5031424;28;20264;-80
2023/03/17 04:10:14;;;;;;;4.78;3.20;;;6.00;99.90;;;;;;5032728;28;20285;-79
2023/03/17 04:12:42;;;;;;;6.43;3.75;;;5.90;99.90;;;;;;5022705;28;20202;-80
2023/03/17 04:15:14;;;;;;;7.03;4.47;;;5.90;99.90;;;;;;5032034;28;20265;-79
2023/03/17 04:17:41;;;;;;;6.13;3.80;;;5.90;99.90;;;;;;5035119;28;20443;-79
2023/03/17 04:20:09;;;;;;;6.25;3.67;;;5.90;99.90;;;;;;5026516;28;20229;-79
2023/03/17 04:22:38;;;;;;;6.68;4.07;;;5.90;99.90;;;;;;5029934;28;20258;-79
2023/03/17 04:25:06;;;;;;;4.68;3.72;;;5.90;99.90;;;;;;5033679;28;20236;-79
2023/03/17 04:27:33;;;;;;;3.95;3.58;;;5.90;99.90;;;;;;5033693;28;20202;-80
2023/03/17 04:30:00;;;;;;;6.18;4.10;;;5.80;99.90;;;;;;5029280;28;20230;-80
2023/03/17 04:32:27;;;;;;;3.97;3.55;;;5.90;99.90;;;;;;5028194;28;20236;-80
2023/03/17 04:34:54;;;;;;;4.45;3.50;;;5.90;99.90;;;;;;5030848;28;20210;-80
2023/03/17 04:37:21;;;;;;;4.00;3.45;;;5.80;99.90;;;;;;5023730;28;20230;-79
2023/03/17 04:39:50;;;;;;;5.85;3.88;;;5.80;99.90;;;;;;5023956;28;20230;-79
2023/03/17 04:42:17;;;;;;;6.25;4.38;;;5.80;99.90;;;;;;5020528;28;20223;-78
2023/03/17 04:44:43;;;;;;;4.80;3.78;;;5.90;99.90;;;;;;5029381;28;20278;-80
2023/03/17 04:47:11;;;;;;;3.55;3.22;;;5.70;99.90;;;;;;5037885;28;20269;-80
2023/03/17 04:49:38;;;;;;;6.32;3.70;;;5.70;99.90;;;;;;5035389;28;20249;-80
2023/03/17 04:52:05;;;;;;;5.47;4.45;;;5.70;99.90;;;;;;5025108;28;20228;-80
2023/03/17 04:54:32;;;;;;;7.97;4.30;;;5.70;99.90;;;;;;5024518;28;20209;-80
2023/03/17 04:57:00;;;;;;;6.88;5.03;;;5.70;99.90;;;;;;5023995;28;20220;-79
2023/03/17 04:59:27;;;;;;;7.65;4.65;;;5.70;99.90;;;;;;5031842;28;20247;-79
2023/03/17 05:01:54;;;;;;;4.47;3.83;;;5.70;99.90;;;;;;5031115;28;20303;-80
2023/03/17 05:04:21;;;;;;;6.75;4.05;;;5.70;99.90;;;;;;5025957;28;20244;-79
2023/03/17 05:06:48;;;;;;;5.00;3.70;;;5.70;99.90;;;;;;5026346;28;20288;-79
2023/03/17 05:09:14;;;;;;;6.55;4.57;;;5.60;99.90;;;;;;5019116;28;20309;-80
2023/03/17 05:11:41;;;;;;;6.75;3.40;;;5.60;99.90;;;;;;5019675;28;20275;-81
2023/03/17 05:14:09;;;;;;;5.20;3.75;;;5.60;99.90;;;;;;5019330;28;20688;-78
2023/03/17 05:16:36;;;;;;;5.70;4.25;;;5.60;99.90;;;;;;5027994;28;20258;-79
2023/03/17 05:19:03;;;;;;;7.80;4.32;;;5.60;99.90;;;;;;5042804;28;20232;-80
2023/03/17 05:21:30;;;;;;;12.65;3.90;;;5.60;99.90;;;;;;5045024;28;20180;-82
2023/03/17 05:23:58;;;;;;;6.07;4.57;;;5.60;99.90;;;;;;5038825;28;20196;-80
2023/03/17 05:26:25;;;;;;;3.65;3.13;;;5.60;99.90;;;;;;5029615;28;20276;-80
2023/03/17 05:28:52;;;;;;;8.55;4.53;;;5.60;99.90;;;;;;5023594;28;20544;-80
2023/03/17 05:31:21;;;;;;;9.13;3.50;;;5.60;99.90;;;;;;5027738;28;20239;-79
2023/03/17 05:33:49;;;;;;;5.85;3.88;;;5.60;99.90;;;;;;5023364;28;20237;-80
2023/03/17 05:36:17;;;;;;;6.15;4.65;;;5.60;99.90;;;;;;5020656;28;20274;-80
2023/03/17 05:38:45;;;;;;;5.30;4.00;;;5.60;99.90;;;;;;5017994;28;20257;-79
2023/03/17 05:41:11;;;;;;;5.13;4.25;;;5.60;99.90;;;;;;5021367;28;20289;-81
2023/03/17 05:43:40;;;;;;;3.80;3.40;;;5.70;99.90;;;;;;5016651;28;20222;-81
2023/03/17 05:46:07;;;;;;;9.07;4.75;;;5.70;99.90;;;;;;5027441;28;20207;-79
2023/03/17 05:48:35;;;;;;;6.28;4.90;;;5.70;99.90;;;;;;5021569;28;20315;-82
2023/03/17 05:51:02;;;;;;;6.82;4.60;;;5.70;99.90;;;;;;5017614;28;20208;-80
2023/03/17 05:53:30;;;;;;;6.43;4.03;;;5.70;99.90;;;;;;5018032;28;20198;-80
2023/03/17 05:55:57;;;;;;;4.60;4.10;;;5.70;99.90;;;;;;5018548;28;20225;-82
2023/03/17 05:58:23;;;;;;;5.50;4.35;;;5.80;99.90;;;;;;5019164;28;20261;-81
2023/03/17 06:00:50;;;;;;;9.05;5.35;;;5.90;99.90;;;;;;5013607;28;20297;-80
2023/03/17 06:03:17;;;;;;;5.30;4.25;;;5.90;99.90;;;;;;5018967;28;20221;-80
2023/03/17 06:05:45;;;;;;;10.15;5.35;;;5.90;99.90;;;;;;5024716;28;20293;-80
2023/03/17 06:08:12;;;;;;;6.40;3.85;;;5.90;99.90;;;;;;5020402;28;20274;-80
2023/03/17 06:10:40;;;;;;;5.95;4.47;;;6.00;99.90;;;;;;5011663;28;20228;-80
2023/03/17 06:13:06;;;;;;;6.10;4.25;;;6.20;99.90;;;;;;5017883;28;20194;-80
2023/03/17 06:15:35;;;;;;;5.95;3.78;;;6.20;99.90;;;;;;5018051;28;20237;-80
2023/03/17 06:18:03;;;;;;;10.00;5.28;;;6.40;99.90;;;;;;5011389;28;20262;-81
2023/03/17 06:20:31;;;;;;;5.32;3.88;;;6.50;99.90;;;;;;5019689;28;20214;-81
2023/03/17 06:22:59;;;;;;;7.20;5.10;;;6.60;99.90;;;;;;5019013;28;20220;-80
2023/03/17 06:25:26;;;;;;;7.30;4.25;;;6.60;99.90;;;;;;5017374;28;20298;-80
2023/03/17 06:27:55;;;;;;;7.32;4.43;;;6.70;99.90;;;;;;5011402;28;20270;-81
2023/03/17 06:30:22;;;;;;;6.55;4.03;;;6.70;99.90;;;;;;5017207;28;20244;-80
2023/03/17 06:32:49;;;;;;;5.72;4.00;;;6.70;99.90;;;;;;5011769;28;20209;-82
2023/03/17 06:35:16;;;;;;;5.05;4.55;;;6.90;99.90;;;;;;5016143;28;20255;-80
2023/03/17 06:37:43;;;;;;;10.02;5.20;;;7.00;99.90;;;;;;5023727;28;20211;-81
2023/03/17 06:40:13;;;;;;;10.27;7.38;;;7.10;99.90;;;;;;5020193;28;20697;-81
2023/03/17 06:42:40;;;;;;;14.77;6.70;;;7.20;99.90;;;;;;5019269;28;20263;-81
2023/03/17 06:45:09;;;;;;;8.57;5.45;;;7.50;99.90;;;;;;5022597;28;20201;-82
2023/03/17 06:47:37;;;;;;;9.00;6.63;;;8.00;99.90;;;;;;5028152;28;20205;-85
2023/03/17 06:50:04;;;;;;;6.10;4.88;;;8.80;99.90;;;;;;5040710;28;20240;-84
2023/03/17 06:52:31;;;;;;;5.70;4.10;;;9.50;99.90;;;;;;5039112;28;20212;-84
2023/03/17 06:54:58;;;;;;;5.00;3.67;;;10.30;97.40;;;;;;5029239;28;20188;-84
2023/03/17 06:57:27;;;;;;;8.73;4.72;;;10.70;95.40;;;;;;5040242;28;20211;-85
2023/03/17 06:59:54;;;;;;;6.35;4.43;;;10.80;94.70;;;;;;5038999;28;20205;-81
2023/03/17 07:02:21;;;;;;;5.40;4.43;;;10.90;94.90;;;;;;5039360;28;20243;-82
2023/03/17 07:04:49;;;;;;;6.57;4.50;;;11.20;94.30;;;;;;5034037;28;20221;-85
2023/03/17 07:07:16;;;;;;;8.75;5.50;;;11.70;93.80;;;;;;5032401;28;20690;-82
2023/03/17 07:09:44;;;;;;;7.55;4.63;;;12.60;92.70;;;;;;5034839;28;20311;-84
2023/03/17 07:12:11;;;;;;;6.07;4.47;;;13.30;91.00;;;;;;5041564;28;20212;-83
2023/03/17 07:14:39;;;;;;;6.40;4.50;;;14.10;89.40;;;;;;5027590;28;20210;-81
2023/03/17 07:17:06;;;;;;;6.50;4.40;;;14.50;87.60;;;;;;5025683;28;20222;-84
2023/03/17 07:19:33;;;;;;;9.50;4.70;;;14.70;85.90;;;;;;5026601;28;20229;-83
2023/03/17 07:22:00;;;;;;;7.17;5.13;;;15.10;85.30;;;;;;5028709;28;20572;-81
2023/03/17 07:24:27;;;;;;;5.13;3.90;;;15.10;83.80;;;;;;5035000;28;20507;-80
2023/03/17 07:26:54;;;;;;;15.67;4.70;;;15.30;83.80;;;;;;5023138;28;20515;-82
2023/03/17 07:29:21;;;;;;;4.97;3.80;;;15.80;83.10;;;;;;5025345;28;20515;-84
2023/03/17 07:31:50;;;;;;;9.50;4.10;;;16.40;81.60;;;;;;5025537;28;20904;-84
2023/03/17 07:34:17;;;;;;;6.80;4.00;;;16.70;80.70;;;;;;5030792;28;20454;-85
2023/03/17 07:36:46;;;;;;;7.23;4.20;;;16.90;80.20;;;;;;5032362;28;20436;-84
2023/03/17 07:39:13;;;;;;;6.83;4.00;;;17.30;78.20;;;;;;5026849;28;20467;-87
2023/03/17 07:41:40;;;;;;;7.90;4.53;;;17.50;78.20;;;;;;5037436;28;20446;-83
2023/03/17 07:44:08;;;;;;;7.83;4.60;;;18.00;76.60;;;;;;5034022;28;20548;-82
2023/03/17 07:46:35;;;;;;;6.03;4.63;;;18.70;75.50;;;;;;5026935;28;20466;-81
2023/03/17 07:49:03;;;;;;;5.10;4.20;;;18.10;73.40;;;;;;5033625;28;20518;-83
2023/03/17 07:51:30;;;;;;;5.13;4.10;;;18.00;75.00;;;;;;5030181;28;20459;-84
2023/03/17 07:54:02;;;;;;;5.60;4.40;;;17.40;75.30;;;;;;5028291;28;20471;-83
2023/03/17 07:56:30;;;;;;;5.87;4.20;;;18.00;75.60;;;;;;5038704;28;20459;-84
2023/03/17 07:58:57;;;;;;;7.20;5.10;;;18.50;74.60;;;;;;5023752;28;20478;-83
2023/03/17 08:01:25;;;;;;;7.60;4.53;;;19.30;72.80;;;;;;5028309;28;20526;-84
2023/03/17 08:03:54;;;;;;;7.47;4.10;;;19.40;71.30;;;;;;5031839;28;20573;-82
2023/03/17 08:06:24;;;;;;;6.13;4.03;;;18.80;70.70;;;;;;5028973;28;20466;-83
2023/03/17 08:08:51;;;;;;;6.13;4.30;;;19.00;71.70;;;;;;5024220;28;20492;-83
2023/03/17 08:11:18;;;;;;;5.23;4.73;;;18.50;71.90;;;;;;5025739;28;20455;-82
2023/03/17 08:13:46;;;;;;;9.30;4.37;;;18.60;72.00;;;;;;5026748;28;20455;-81
2023/03/17 08:16:13;;;;;;;8.67;4.27;;;18.70;72.00;;;;;;5034604;28;20471;-84
2023/03/17 08:18:40;;;;;;;5.23;4.33;;;18.30;72.60;;;;;;5033576;28;20504;-84
2023/03/17 08:21:07;;;;;;;7.70;5.50;;;19.00;72.70;;;;;;5032005;28;20502;-82
2023/03/17 08:23:36;;;;;;;10.20;5.10;;;19.30;72.10;;;;;;5036819;28;20483;-85
2023/03/17 08:26:04;;;;;;;6.30;5.03;;;19.90;71.60;;;;;;5032089;28;20447;-83
2023/03/17 08:28:31;;;;;;;5.80;4.50;;;20.10;70.20;;;;;;5034115;28;20487;-81
2023/03/17 08:31:08;;;;;;;7.43;5.10;;;20.30;69.90;;;;;;5032093;28;20432;-85
2023/03/17 08:33:35;;;;;;;17.03;5.80;;;20.00;70.10;;;;;;5034095;28;20450;-82
2023/03/17 08:36:05;;;;;;;8.70;5.40;;;20.10;70.40;;;;;;5025856;28;20534;-81
2023/03/17 08:38:32;;;;;;;6.67;5.93;;;20.10;69.50;;;;;;5027606;28;20612;-81
2023/03/17 08:41:01;;;;;;;5.70;4.60;;;19.40;70.10;;;;;;5025204;28;20466;-81
2023/03/17 08:43:28;;;;;;;6.30;4.70;;;18.60;70.50;;;;;;5027179;28;20498;-83
2023/03/17 08:46:01;;;;;;;5.73;5.07;;;18.90;71.80;;;;;;5024497;28;20455;-82
2023/03/17 08:48:29;;;;;;;5.30;4.80;;;19.20;71.30;;;;;;5024385;28;20550;-81
2023/03/17 08:50:56;;;;;;;5.23;4.33;;;17.90;71.80;;;;;;5031932;28;20475;-81
2023/03/17 08:53:24;;;;;;;8.93;5.27;;;19.00;72.20;;;;;;5032142;28;20503;-81
2023/03/17 08:55:50;;;;;;;5.83;4.30;;;19.50;71.40;;;;;;5031610;28;20432;-83
2023/03/17 08:58:19;;;;;;;6.10;3.73;;;19.60;70.00;;;;;;5032423;28;20544;-84
2023/03/17 09:00:47;;;;;;;6.60;4.37;;;19.90;70.10;;;;;;5033162;28;20444;-83
2023/03/17 09:03:14;;;;;;;5.13;4.50;;;19.90;69.30;;;;;;5034246;28;20483;-82
2023/03/17 09:05:42;;;;;;;5.63;4.67;;;20.50;69.20;;;;;;5032613;28;20471;-83
2023/03/17 09:08:10;;;;;;;14.17;9.07;;;20.20;68.90;;;;;;5033956;28;20428;-82
2023/03/17 09:10:37;;;;;;;6.90;5.70;;;19.60;69.70;;;;;;5032971;28;20470;-82
2023/03/17 09:13:05;;;;;;;7.50;5.60;;;18.30;71.10;;;;;;5031107;28;20526;-81
2023/03/17 09:15:33;;;;;;;10.23;5.43;;;17.20;73.70;;;;;;5031153;28;20444;-81
2023/03/17 09:18:00;;;;;;;6.77;4.70;;;16.50;75.10;;;;;;5039040;28;20455;-79
2023/03/17 09:20:49;;;;;;;7.18;4.75;;;15.90;77.40;;;;;;5035126;28;20450;-84
2023/03/17 09:23:15;;;;;;;5.03;4.35;;;15.60;79.10;;;;;;5030431;28;20231;-84
2023/03/17 09:25:42;;;;;;;6.20;5.35;;;14.70;80.40;;;;;;5036903;28;20198;-83
2023/03/17 09:28:11;;;;;;;4.88;4.20;;;14.90;82.00;;;;;;5036998;28;20213;-80
2023/03/17 09:30:41;;;;;;;9.50;5.00;;;14.60;82.80;;;;;;5023944;28;20203;-80
2023/03/17 09:33:09;;;;;;;8.17;5.60;;;15.30;83.00;;;;;;5019422;28;20193;-81
2023/03/17 09:35:35;;;;;;;8.73;5.20;;;16.70;81.10;;;;;;5028296;28;21024;-78
2023/03/17 09:38:02;;;;;;;5.17;4.30;;;17.90;78.30;;;;;;5022811;28;20474;-81
2023/03/17 09:40:32;;;;;;;7.30;4.73;;;18.80;75.90;;;;;;5039380;28;20432;-81
2023/03/17 09:43:11;;;;;;;5.73;4.83;;;20.10;73.80;;;;;;5037103;28;20444;-81
2023/03/17 09:45:41;;;;;;;10.93;4.90;;;21.00;71.80;;;;;;5037625;28;20424;-81
2023/03/17 09:48:23;;;;;;;5.97;4.83;;;21.60;70.10;;;;;;5037540;28;20449;-79
2023/03/17 09:50:55;;;;;;;5.83;4.57;;;21.70;69.30;;;;;;5021774;28;20460;-82
2023/03/17 09:53:26;;;;;;;5.83;5.23;;;21.90;68.90;;;;;;5026803;28;20444;-81
2023/03/17 09:55:57;;;;;;;8.30;5.20;;;22.10;68.40;;;;;;5019884;28;20442;-79
2023/03/17 09:58:30;;;;;;;6.57;4.47;;;21.90;67.90;;;;;;5019622;28;20533;-83
2023/03/17 10:00:59;;;;;;;6.77;5.30;;;21.90;68.70;;;;;;5016898;28;20476;-79
2023/03/17 10:03:27;;;;;;;8.43;6.40;;;21.60;69.50;;;;;;5018923;28;20845;-79
2023/03/17 10:05:58;;;;;;;7.20;5.20;;;21.30;69.40;;;;;;5026396;28;20458;-81
2023/03/17 10:08:30;;;;;;;8.00;5.00;;;21.20;70.00;;;;;;5018398;28;20554;-80
2023/03/17 10:11:01;;;;;;;9.40;6.20;;;21.60;70.60;;;;;;5023729;28;20515;-80
2023/03/17 10:13:41;;;;;;;8.40;4.70;;;22.20;69.50;;;;;;5018580;28;20486;-80
2023/03/17 10:16:13;;;;;;;7.43;5.27;;;22.00;68.50;;;;;;5026010;28;20486;-79
2023/03/17 10:18:45;;;;;;;6.73;4.10;;;21.90;67.30;;;;;;5016431;28;20986;-80
2023/03/17 10:21:17;;;;;;;6.37;4.23;;;22.30;65.40;;;;;;5024202;28;20448;-79
2023/03/17 10:23:45;;;;;;;9.27;4.60;;;22.30;64.40;;;;;;5023280;28;20474;-80
2023/03/17 10:26:24;;;;;;;5.40;4.80;;;21.30;65.50;;;;;;5021382;28;20507;-80
2023/03/17 10:28:51;;;;;;;6.47;4.40;;;21.10;66.20;;;;;;5016253;28;20538;-81
2023/03/17 10:31:26;;;;;;;7.53;6.13;;;20.90;65.80;;;;;;5025153;28;20478;-81
2023/03/17 10:33:55;;;;;;;6.13;4.43;;;21.10;66.80;;;;;;5018529;28;20436;-80
2023/03/17 10:36:35;;;;;;;5.07;3.50;;;20.60;66.00;;;;;;5021500;28;20470;-81
2023/03/17 10:39:11;;;;;;;7.93;4.53;;;19.90;66.60;;;;;;5012164;28;20967;-81
2023/03/17 10:41:41;;;;;;;5.10;4.20;;;19.80;68.10;;;;;;5012778;28;20522;-79
2023/03/17 10:44:09;;;;;;;5.93;4.47;;;19.70;68.70;;;;;;5011839;28;20479;-80
2023/03/17 10:46:38;;;;;;;6.43;4.10;;;19.50;68.90;;;;;;5020228;28;20461;-80
2023/03/17 10:49:09;;;;;;;5.60;4.10;;;18.90;69.90;;;;;;5015116;28;20510;-80
2023/03/17 10:51:39;;;;;;;6.10;3.73;;;18.30;71.30;;;;;;5014483;28;20445;-79
2023/03/17 10:54:09;;;;;;;4.80;4.30;;;17.60;73.00;;;;;;5017283;28;20462;-79
2023/03/17 10:56:38;;;;;;;6.50;4.77;;;18.00;73.20;;;;;;5024492;28;20463;-82
2023/03/17 10:59:08;;;;;;;5.10;3.90;;;18.00;73.80;;;;;;5020223;28;20459;-81
2023/03/17 11:01:40;;;;;;;5.53;3.97;;;17.80;73.80;;;;;;5023259;28;20448;-80
2023/03/17 11:04:29;;;;;;;6.13;4.90;;;17.60;74.90;;;;;;5014893;28;20503;-79
2023/03/17 11:06:58;;;;;;;4.90;4.30;;;18.00;75.90;;;;;;5013691;28;20527;-81
2023/03/17 11:09:27;;;;;;;10.80;4.60;;;18.20;74.20;;;;;;5013729;28;21204;-79
2023/03/17 11:12:02;;;;;;;6.03;3.43;;;18.50;73.80;;;;;;5021421;28;20455;-79
2023/03/17 11:14:29;;;;;;;6.93;4.70;;;18.00;72.70;;;;;;5013799;28;20507;-80
2023/03/17 11:17:00;;;;;;;5.90;4.10;;;17.90;73.90;;;;;;5010595;28;20459;-80
2023/03/17 11:19:39;;;;;;;6.83;3.87;;;18.00;74.50;;;;;;5016756;28;20497;-82
2023/03/17 11:22:13;;;;;;;9.13;4.77;;;18.20;74.30;;;;;;5014976;28;20519;-80
2023/03/17 11:24:50;;;;;;;6.67;4.37;;;18.60;74.20;;;;;;5027111;28;20546;-79
2023/03/17 11:27:24;;;;;;;4.47;3.50;;;18.60;73.80;;;;;;5017188;28;20464;-79
2023/03/17 11:30:16;;;;;;;6.80;4.57;;;18.50;73.50;;;;;;5020617;28;20503;-79
2023/03/17 11:32:51;;;;;;;5.10;4.60;;;18.50;73.90;;;;;;5012240;28;20451;-79
2023/03/17 11:35:34;;;;;;;6.13;4.30;;;18.50;75.50;;;;;;5029469;28;20946;-83
2023/03/17 11:38:24;;;;;;;8.03;3.80;;;18.20;74.10;;;;;;5021574;28;20459;-81
2023/03/17 11:41:40;;;;;;;7.40;4.60;;;18.60;75.40;;;;;;5013679;28;20510;-81
2023/03/17 11:44:27;;;;;;;5.23;3.77;;;18.50;74.30;;;;;;4994010;28;20557;-79
2023/03/17 11:47:01;;;;;;;5.90;4.60;;;18.40;73.80;;;;;;5022278;28;20444;-81
2023/03/17 11:49:35;;;;;;;5.30;4.70;;;17.80;75.30;;;;;;5019262;28;20472;-81
2023/03/17 11:52:11;;;;;;;7.97;4.57;;;17.40;76.00;;;;;;5021404;28;20450;-80
2023/03/17 11:54:49;;;;;;;7.40;4.20;;;17.50;77.40;;;;;;5027172;28;20474;-80
2023/03/17 11:57:22;;;;;;;5.43;4.53;;;17.60;75.90;;;;;;5022218;28;20511;-80
2023/03/17 11:59:53;;;;;;;5.30;3.60;;;17.90;76.30;;;;;;5023547;28;20473;-82
2023/03/17 12:02:27;;;;;;;5.57;3.90;;;17.80;76.00;;;;;;5019576;28;20480;-81
2023/03/17 12:04:59;;;;;;;5.47;3.77;;;18.20;75.50;;;;;;5021016;28;20586;-81
2023/03/17 12:07:31;;;;;;;5.53;4.40;;;17.70;75.50;;;;;;5024725;28;20472;-79
2023/03/17 12:10:08;;;;;;;6.50;4.40;;;17.70;76.30;;;;;;5030023;28;20944;-81
2023/03/17 12:12:39;;;;;;;4.47;3.70;;;17.70;76.70;;;;;;5022400;28;20527;-80
2023/03/17 12:15:15;;;;;;;7.17;4.43;;;17.90;76.50;;;;;;5027629;28;20439;-80
2023/03/17 12:17:50;;;;;;;7.70;4.80;;;17.80;76.20;;;;;;5020715;28;20502;-80
2023/03/17 12:20:26;;;;;;;9.37;4.40;;;17.40;76.20;;;;;;5023059;28;20475;-80
2023/03/17 12:22:57;;;;;;;6.90;4.70;;;17.40;76.70;;;;;;5034144;28;20434;-82
2023/03/17 12:25:29;;;;;;;6.63;4.50;;;17.50;76.80;;;;;;5037563;28;20522;-82
2023/03/17 12:28:01;;;;;;;4.97;3.90;;;17.60;77.70;;;;;;5042690;28;20440;-82
2023/03/17 12:30:34;;;;;;;8.90;4.40;;;17.70;77.30;;;;;;5032563;28;20471;-81
2023/03/17 12:33:11;;;;;;;5.67;4.73;;;17.50;76.80;;;;;;5029839;28;20466;-80
2023/03/17 12:35:39;;;;;;;7.27;4.10;;;17.30;76.80;;;;;;5021678;28;20439;-79
2023/03/17 12:38:11;;;;;;;7.03;4.60;;;17.50;77.30;;;;;;5026415;28;20459;-80
2023/03/17 12:40:51;;;;;;;5.10;4.27;;;17.70;77.70;;;;;;5019326;28;20498;-80
2023/03/17 12:43:35;;;;;;;7.93;4.90;;;17.80;77.70;;;;;;5027623;28;20454;-79
2023/03/17 12:46:21;;;;;;;6.70;4.57;;;17.80;77.80;;;;;;5025781;28;20429;-81
2023/03/17 12:49:26;;;;;;;6.10;4.20;;;17.80;77.50;;;;;;5019095;28;20472;-79
2023/03/17 12:52:16;;;;;;;7.20;4.10;;;17.60;77.30;;;;;;5020892;28;20805;-80
2023/03/17 12:54:47;;;;;;;4.90;4.00;;;17.40;77.80;;;;;;5034671;28;20447;-79
2023/03/17 12:57:19;;;;;;;6.07;4.00;;;17.60;78.20;;;;;;5010712;28;20451;-80
2023/03/17 12:59:48;;;;;;;10.67;5.33;;;17.70;78.20;;;;;;5023011;28;20547;-80
2023/03/17 13:02:23;;;;;;;5.93;5.27;;;17.80;78.20;;;;;;5015443;28;20444;-80
2023/03/17 13:04:56;;;;;;;7.20;4.67;;;18.00;77.80;;;;;;5001771;28;20562;-79